Waverly, Louisiana
Current Conditions -  °F | °C
As of 2:55 PM on Tuesday 27 Jan 2015 (Local Time) from KBQP Reporting Station
Clear Clear  
Wind Chill: 69°   Ceiling: Unl
Heat Index: 69°   Visibility: 10mi
Dew Point: 40°   Wind: 0mph
Humidity: 35%   Direction: NA
Pressure: 30.12"   Gusts: NA
Location:  32.4445°N, 91.5289°W
Report Text: KBQP 272055Z AUTO 00000KT 10SM CLR 20/04 A3012 RMK AO2 T02030042
Loading
Personal Weather Stations






























Interactive Weather Map New forecast layout! Learn more

10-Day Weather Forecast

Advertisements
Track Severe Weather on mobile